sensor_id;sensor_type;location;lat;lon;timestamp;P1;durP1;ratioP1;P2;durP2;ratioP2
8044;SDS011;4065;48.754;9.982;2023-07-29T00:01:33;2.90;;;2.60;;
8044;SDS011;4065;48.754;9.982;2023-07-29T00:04:55;3.10;;;2.72;;
8044;SDS011;4065;48.754;9.982;2023-07-29T00:08:18;6.20;;;3.70;;
8044;SDS011;4065;48.754;9.982;2023-07-29T00:11:40;3.38;;;2.78;;
8044;SDS011;4065;48.754;9.982;2023-07-29T00:15:02;7.82;;;2.78;;
8044;SDS011;4065;48.754;9.982;2023-07-29T00:18:24;5.13;;;2.53;;
8044;SDS011;4065;48.754;9.982;2023-07-29T00:21:46;4.30;;;3.03;;
8044;SDS011;4065;48.754;9.982;2023-07-29T00:25:09;4.07;;;3.15;;
8044;SDS011;4065;48.754;9.982;2023-07-29T00:28:31;3.45;;;2.78;;
8044;SDS011;4065;48.754;9.982;2023-07-29T00:31:53;3.50;;;2.65;;
8044;SDS011;4065;48.754;9.982;2023-07-29T00:35:15;3.55;;;2.80;;
8044;SDS011;4065;48.754;9.982;2023-07-29T00:38:37;3.75;;;2.60;;
8044;SDS011;4065;48.754;9.982;2023-07-29T00:42:00;6.15;;;2.70;;
8044;SDS011;4065;48.754;9.982;2023-07-29T00:45:22;3.38;;;2.65;;
8044;SDS011;4065;48.754;9.982;2023-07-29T00:48:45;2.88;;;2.65;;
8044;SDS011;4065;48.754;9.982;2023-07-29T00:52:07;4.15;;;2.70;;
8044;SDS011;4065;48.754;9.982;2023-07-29T00:55:31;3.15;;;2.60;;
8044;SDS011;4065;48.754;9.982;2023-07-29T00:58:54;4.35;;;2.60;;
8044;SDS011;4065;48.754;9.982;2023-07-29T01:02:20;2.92;;;2.72;;
8044;SDS011;4065;48.754;9.982;2023-07-29T01:05:45;2.80;;;2.50;;
8044;SDS011;4065;48.754;9.982;2023-07-29T01:09:14;3.78;;;2.53;;
8044;SDS011;4065;48.754;9.982;2023-07-29T01:12:46;3.45;;;2.30;;
8044;SDS011;4065;48.754;9.982;2023-07-29T01:16:13;2.90;;;2.55;;
8044;SDS011;4065;48.754;9.982;2023-07-29T01:19:43;4.70;;;2.50;;
8044;SDS011;4065;48.754;9.982;2023-07-29T01:23:10;2.95;;;2.67;;
8044;SDS011;4065;48.754;9.982;2023-07-29T01:26:33;3.33;;;2.30;;
8044;SDS011;4065;48.754;9.982;2023-07-29T01:29:56;2.88;;;2.45;;
8044;SDS011;4065;48.754;9.982;2023-07-29T01:33:20;3.22;;;2.80;;
8044;SDS011;4065;48.754;9.982;2023-07-29T01:36:45;3.30;;;2.97;;
8044;SDS011;4065;48.754;9.982;2023-07-29T01:40:07;4.50;;;2.65;;
8044;SDS011;4065;48.754;9.982;2023-07-29T01:43:31;4.15;;;2.90;;
8044;SDS011;4065;48.754;9.982;2023-07-29T01:46:54;3.20;;;2.90;;
8044;SDS011;4065;48.754;9.982;2023-07-29T01:50:16;3.00;;;2.70;;
8044;SDS011;4065;48.754;9.982;2023-07-29T01:53:38;4.15;;;2.90;;
8044;SDS011;4065;48.754;9.982;2023-07-29T01:57:00;6.43;;;2.88;;
8044;SDS011;4065;48.754;9.982;2023-07-29T02:00:23;4.55;;;2.88;;
8044;SDS011;4065;48.754;9.982;2023-07-29T02:03:45;5.75;;;2.50;;
8044;SDS011;4065;48.754;9.982;2023-07-29T02:07:07;7.07;;;2.90;;
8044;SDS011;4065;48.754;9.982;2023-07-29T02:10:29;3.30;;;2.72;;
8044;SDS011;4065;48.754;9.982;2023-07-29T02:13:51;7.10;;;2.90;;
8044;SDS011;4065;48.754;9.982;2023-07-29T02:17:14;3.08;;;2.40;;
8044;SDS011;4065;48.754;9.982;2023-07-29T02:20:36;5.55;;;2.63;;
8044;SDS011;4065;48.754;9.982;2023-07-29T02:23:57;5.07;;;2.70;;
8044;SDS011;4065;48.754;9.982;2023-07-29T02:27:19;5.78;;;2.85;;
8044;SDS011;4065;48.754;9.982;2023-07-29T02:30:41;3.50;;;2.75;;
8044;SDS011;4065;48.754;9.982;2023-07-29T02:34:06;5.70;;;2.70;;
8044;SDS011;4065;48.754;9.982;2023-07-29T02:37:28;3.28;;;2.70;;
8044;SDS011;4065;48.754;9.982;2023-07-29T02:40:50;4.20;;;2.40;;
8044;SDS011;4065;48.754;9.982;2023-07-29T02:44:12;4.00;;;2.50;;
8044;SDS011;4065;48.754;9.982;2023-07-29T02:47:34;3.40;;;2.40;;
8044;SDS011;4065;48.754;9.982;2023-07-29T02:50:57;9.13;;;2.80;;
8044;SDS011;4065;48.754;9.982;2023-07-29T02:54:19;3.72;;;2.50;;
8044;SDS011;4065;48.754;9.982;2023-07-29T02:57:41;4.13;;;2.80;;
8044;SDS011;4065;48.754;9.982;2023-07-29T03:01:03;7.55;;;3.10;;
8044;SDS011;4065;48.754;9.982;2023-07-29T03:04:25;4.28;;;2.50;;
8044;SDS011;4065;48.754;9.982;2023-07-29T03:07:49;7.05;;;2.83;;
8044;SDS011;4065;48.754;9.982;2023-07-29T03:11:13;3.55;;;2.45;;
8044;SDS011;4065;48.754;9.982;2023-07-29T03:14:36;4.25;;;2.83;;
8044;SDS011;4065;48.754;9.982;2023-07-29T03:17:57;3.55;;;2.72;;
8044;SDS011;4065;48.754;9.982;2023-07-29T03:21:19;3.95;;;2.78;;
8044;SDS011;4065;48.754;9.982;2023-07-29T03:24:42;5.63;;;2.63;;
8044;SDS011;4065;48.754;9.982;2023-07-29T03:28:04;2.55;;;2.35;;
8044;SDS011;4065;48.754;9.982;2023-07-29T03:31:26;8.75;;;3.17;;
8044;SDS011;4065;48.754;9.982;2023-07-29T03:34:48;3.28;;;2.70;;
8044;SDS011;4065;48.754;9.982;2023-07-29T03:38:10;4.30;;;2.70;;
8044;SDS011;4065;48.754;9.982;2023-07-29T03:41:33;5.78;;;2.60;;
8044;SDS011;4065;48.754;9.982;2023-07-29T03:44:55;4.85;;;2.92;;
8044;SDS011;4065;48.754;9.982;2023-07-29T03:48:17;6.45;;;3.08;;
8044;SDS011;4065;48.754;9.982;2023-07-29T03:51:39;5.25;;;2.90;;
8044;SDS011;4065;48.754;9.982;2023-07-29T03:55:01;3.45;;;2.60;;
8044;SDS011;4065;48.754;9.982;2023-07-29T03:58:35;4.72;;;2.95;;
8044;SDS011;4065;48.754;9.982;2023-07-29T04:01:57;5.38;;;3.30;;
8044;SDS011;4065;48.754;9.982;2023-07-29T04:05:19;3.00;;;2.60;;
8044;SDS011;4065;48.754;9.982;2023-07-29T04:08:41;4.25;;;2.92;;
8044;SDS011;4065;48.754;9.982;2023-07-29T04:12:03;5.03;;;2.95;;
8044;SDS011;4065;48.754;9.982;2023-07-29T04:15:27;7.30;;;3.28;;
8044;SDS011;4065;48.754;9.982;2023-07-29T04:18:49;3.33;;;2.78;;
8044;SDS011;4065;48.754;9.982;2023-07-29T04:22:10;3.28;;;2.58;;
8044;SDS011;4065;48.754;9.982;2023-07-29T04:25:32;6.03;;;2.70;;
8044;SDS011;4065;48.754;9.982;2023-07-29T04:28:54;4.18;;;3.33;;
8044;SDS011;4065;48.754;9.982;2023-07-29T04:32:17;5.80;;;3.75;;
8044;SDS011;4065;48.754;9.982;2023-07-29T04:35:39;5.00;;;3.20;;
8044;SDS011;4065;48.754;9.982;2023-07-29T04:39:01;5.22;;;3.28;;
8044;SDS011;4065;48.754;9.982;2023-07-29T04:42:23;3.97;;;3.30;;
8044;SDS011;4065;48.754;9.982;2023-07-29T04:45:45;5.70;;;4.03;;
8044;SDS011;4065;48.754;9.982;2023-07-29T04:49:08;5.20;;;3.95;;
8044;SDS011;4065;48.754;9.982;2023-07-29T04:52:30;4.07;;;3.67;;
8044;SDS011;4065;48.754;9.982;2023-07-29T04:55:52;4.07;;;3.38;;
8044;SDS011;4065;48.754;9.982;2023-07-29T04:59:14;6.45;;;3.60;;
8044;SDS011;4065;48.754;9.982;2023-07-29T05:02:36;3.63;;;3.33;;
8044;SDS011;4065;48.754;9.982;2023-07-29T05:06:00;4.25;;;3.30;;
8044;SDS011;4065;48.754;9.982;2023-07-29T05:09:21;5.82;;;3.85;;
8044;SDS011;4065;48.754;9.982;2023-07-29T05:12:43;7.40;;;4.90;;
8044;SDS011;4065;48.754;9.982;2023-07-29T05:16:05;12.80;;;7.55;;
8044;SDS011;4065;48.754;9.982;2023-07-29T05:19:27;9.80;;;6.07;;
8044;SDS011;4065;48.754;9.982;2023-07-29T05:22:50;8.75;;;4.90;;
8044;SDS011;4065;48.754;9.982;2023-07-29T05:26:12;5.47;;;4.32;;
8044;SDS011;4065;48.754;9.982;2023-07-29T05:29:34;7.32;;;4.65;;
8044;SDS011;4065;48.754;9.982;2023-07-29T05:32:56;8.20;;;5.05;;
8044;SDS011;4065;48.754;9.982;2023-07-29T05:36:18;6.30;;;4.40;;
8044;SDS011;4065;48.754;9.982;2023-07-29T05:39:41;7.20;;;4.53;;
8044;SDS011;4065;48.754;9.982;2023-07-29T05:43:03;6.60;;;4.20;;
8044;SDS011;4065;48.754;9.982;2023-07-29T05:46:25;6.80;;;4.63;;
8044;SDS011;4065;48.754;9.982;2023-07-29T05:49:46;7.45;;;4.70;;
8044;SDS011;4065;48.754;9.982;2023-07-29T05:53:08;8.20;;;4.35;;
8044;SDS011;4065;48.754;9.982;2023-07-29T05:56:31;13.10;;;5.25;;
8044;SDS011;4065;48.754;9.982;2023-07-29T05:59:53;5.07;;;4.07;;
8044;SDS011;4065;48.754;9.982;2023-07-29T06:03:15;7.15;;;4.00;;
8044;SDS011;4065;48.754;9.982;2023-07-29T06:06:37;4.50;;;3.55;;
8044;SDS011;4065;48.754;9.982;2023-07-29T06:09:59;7.53;;;3.65;;
8044;SDS011;4065;48.754;9.982;2023-07-29T06:13:22;9.13;;;4.20;;
8044;SDS011;4065;48.754;9.982;2023-07-29T06:16:44;8.25;;;4.15;;
8044;SDS011;4065;48.754;9.982;2023-07-29T06:20:06;11.82;;;4.22;;
8044;SDS011;4065;48.754;9.982;2023-07-29T06:23:29;7.38;;;4.07;;
8044;SDS011;4065;48.754;9.982;2023-07-29T06:26:50;7.22;;;3.75;;
8044;SDS011;4065;48.754;9.982;2023-07-29T06:30:14;6.13;;;4.05;;
8044;SDS011;4065;48.754;9.982;2023-07-29T06:33:35;5.35;;;4.47;;
8044;SDS011;4065;48.754;9.982;2023-07-29T06:36:57;10.07;;;4.20;;
8044;SDS011;4065;48.754;9.982;2023-07-29T06:40:19;8.75;;;4.90;;
8044;SDS011;4065;48.754;9.982;2023-07-29T06:43:41;5.85;;;4.38;;
8044;SDS011;4065;48.754;9.982;2023-07-29T06:47:05;4.53;;;3.40;;
8044;SDS011;4065;48.754;9.982;2023-07-29T06:50:27;8.13;;;3.33;;
8044;SDS011;4065;48.754;9.982;2023-07-29T06:53:49;3.70;;;3.38;;
8044;SDS011;4065;48.754;9.982;2023-07-29T06:57:11;4.75;;;3.20;;
8044;SDS011;4065;48.754;9.982;2023-07-29T07:00:33;6.30;;;3.65;;
8044;SDS011;4065;48.754;9.982;2023-07-29T07:03:56;4.95;;;3.28;;
8044;SDS011;4065;48.754;9.982;2023-07-29T07:07:18;5.70;;;3.83;;
8044;SDS011;4065;48.754;9.982;2023-07-29T07:10:40;5.45;;;3.25;;
8044;SDS011;4065;48.754;9.982;2023-07-29T07:14:02;5.22;;;3.63;;
8044;SDS011;4065;48.754;9.982;2023-07-29T07:17:24;5.07;;;3.38;;
8044;SDS011;4065;48.754;9.982;2023-07-29T07:20:49;5.90;;;3.30;;
8044;SDS011;4065;48.754;9.982;2023-07-29T07:24:10;4.32;;;3.20;;
8044;SDS011;4065;48.754;9.982;2023-07-29T07:27:32;5.85;;;3.78;;
8044;SDS011;4065;48.754;9.982;2023-07-29T07:30:54;5.60;;;3.70;;
8044;SDS011;4065;48.754;9.982;2023-07-29T07:34:16;7.00;;;4.13;;
8044;SDS011;4065;48.754;9.982;2023-07-29T07:37:39;7.47;;;3.55;;
8044;SDS011;4065;48.754;9.982;2023-07-29T07:41:01;4.18;;;3.15;;
8044;SDS011;4065;48.754;9.982;2023-07-29T07:44:23;6.60;;;3.75;;
8044;SDS011;4065;48.754;9.982;2023-07-29T07:47:46;6.85;;;4.10;;
8044;SDS011;4065;48.754;9.982;2023-07-29T07:51:11;5.97;;;4.03;;
8044;SDS011;4065;48.754;9.982;2023-07-29T07:54:34;7.28;;;3.80;;
8044;SDS011;4065;48.754;9.982;2023-07-29T07:57:56;4.15;;;3.45;;
8044;SDS011;4065;48.754;9.982;2023-07-29T08:01:18;4.80;;;2.60;;
8044;SDS011;4065;48.754;9.982;2023-07-29T08:04:40;5.25;;;2.45;;
8044;SDS011;4065;48.754;9.982;2023-07-29T08:08:02;4.57;;;2.40;;
8044;SDS011;4065;48.754;9.982;2023-07-29T08:11:26;3.38;;;2.42;;
8044;SDS011;4065;48.754;9.982;2023-07-29T08:14:48;2.67;;;1.90;;
8044;SDS011;4065;48.754;9.982;2023-07-29T08:18:13;2.20;;;1.77;;
8044;SDS011;4065;48.754;9.982;2023-07-29T08:21:34;2.03;;;1.60;;
8044;SDS011;4065;48.754;9.982;2023-07-29T08:24:56;2.30;;;1.83;;
8044;SDS011;4065;48.754;9.982;2023-07-29T08:28:20;2.75;;;1.67;;
8044;SDS011;4065;48.754;9.982;2023-07-29T08:31:42;2.53;;;1.60;;
8044;SDS011;4065;48.754;9.982;2023-07-29T08:35:04;2.13;;;1.63;;
8044;SDS011;4065;48.754;9.982;2023-07-29T08:38:26;1.60;;;1.50;;
8044;SDS011;4065;48.754;9.982;2023-07-29T08:41:49;2.13;;;1.70;;
8044;SDS011;4065;48.754;9.982;2023-07-29T08:45:15;2.45;;;2.00;;
8044;SDS011;4065;48.754;9.982;2023-07-29T08:48:39;2.13;;;1.75;;
8044;SDS011;4065;48.754;9.982;2023-07-29T08:52:02;2.28;;;1.90;;
8044;SDS011;4065;48.754;9.982;2023-07-29T08:55:26;2.95;;;1.55;;
8044;SDS011;4065;48.754;9.982;2023-07-29T08:58:47;4.53;;;2.15;;
8044;SDS011;4065;48.754;9.982;2023-07-29T09:02:11;3.22;;;1.73;;
8044;SDS011;4065;48.754;9.982;2023-07-29T09:05:33;3.58;;;1.80;;
8044;SDS011;4065;48.754;9.982;2023-07-29T09:08:56;2.97;;;1.90;;
8044;SDS011;4065;48.754;9.982;2023-07-29T09:12:18;2.85;;;2.33;;
8044;SDS011;4065;48.754;9.982;2023-07-29T09:15:40;2.85;;;2.20;;
8044;SDS011;4065;48.754;9.982;2023-07-29T09:19:04;1.83;;;1.73;;
8044;SDS011;4065;48.754;9.982;2023-07-29T09:22:26;3.80;;;1.90;;
8044;SDS011;4065;48.754;9.982;2023-07-29T09:25:49;4.68;;;1.95;;
8044;SDS011;4065;48.754;9.982;2023-07-29T09:29:11;4.15;;;2.40;;
8044;SDS011;4065;48.754;9.982;2023-07-29T09:32:33;5.03;;;2.30;;
8044;SDS011;4065;48.754;9.982;2023-07-29T09:35:56;2.30;;;1.83;;
8044;SDS011;4065;48.754;9.982;2023-07-29T09:39:18;2.45;;;2.10;;
8044;SDS011;4065;48.754;9.982;2023-07-29T09:42:40;3.20;;;2.17;;
8044;SDS011;4065;48.754;9.982;2023-07-29T09:46:09;4.60;;;2.28;;
8044;SDS011;4065;48.754;9.982;2023-07-29T09:49:34;2.42;;;2.08;;
8044;SDS011;4065;48.754;9.982;2023-07-29T09:52:57;3.38;;;2.33;;
8044;SDS011;4065;48.754;9.982;2023-07-29T09:56:24;2.95;;;2.22;;
8044;SDS011;4065;48.754;9.982;2023-07-29T09:59:53;2.08;;;1.88;;
8044;SDS011;4065;48.754;9.982;2023-07-29T10:03:15;2.33;;;2.05;;
8044;SDS011;4065;48.754;9.982;2023-07-29T10:06:39;3.17;;;2.20;;
8044;SDS011;4065;48.754;9.982;2023-07-29T10:10:05;2.85;;;1.95;;
8044;SDS011;4065;48.754;9.982;2023-07-29T10:13:28;2.42;;;2.20;;
8044;SDS011;4065;48.754;9.982;2023-07-29T10:16:50;3.38;;;2.20;;
8044;SDS011;4065;48.754;9.982;2023-07-29T10:20:12;2.70;;;2.13;;
8044;SDS011;4065;48.754;9.982;2023-07-29T10:23:34;2.15;;;1.95;;
8044;SDS011;4065;48.754;9.982;2023-07-29T10:27:01;2.58;;;2.28;;
8044;SDS011;4065;48.754;9.982;2023-07-29T10:30:23;3.63;;;2.47;;
8044;SDS011;4065;48.754;9.982;2023-07-29T10:33:46;3.17;;;2.38;;
8044;SDS011;4065;48.754;9.982;2023-07-29T10:37:08;2.70;;;2.40;;
8044;SDS011;4065;48.754;9.982;2023-07-29T10:40:43;3.08;;;2.15;;
8044;SDS011;4065;48.754;9.982;2023-07-29T10:44:07;2.92;;;2.50;;
8044;SDS011;4065;48.754;9.982;2023-07-29T10:48:13;4.80;;;2.70;;
8044;SDS011;4065;48.754;9.982;2023-07-29T10:51:55;3.95;;;2.92;;
8044;SDS011;4065;48.754;9.982;2023-07-29T10:55:24;2.45;;;2.25;;
8044;SDS011;4065;48.754;9.982;2023-07-29T10:58:47;2.70;;;2.42;;
8044;SDS011;4065;48.754;9.982;2023-07-29T11:02:17;2.83;;;2.42;;
8044;SDS011;4065;48.754;9.982;2023-07-29T11:05:43;2.70;;;2.50;;
8044;SDS011;4065;48.754;9.982;2023-07-29T11:13:01;3.60;;;2.83;;
8044;SDS011;4065;48.754;9.982;2023-07-29T11:16:23;2.97;;;2.60;;
8044;SDS011;4065;48.754;9.982;2023-07-29T11:19:46;3.22;;;2.70;;
8044;SDS011;4065;48.754;9.982;2023-07-29T11:23:09;6.45;;;2.70;;
8044;SDS011;4065;48.754;9.982;2023-07-29T11:26:31;4.22;;;2.95;;
8044;SDS011;4065;48.754;9.982;2023-07-29T11:29:56;5.45;;;2.92;;
8044;SDS011;4065;48.754;9.982;2023-07-29T11:33:19;4.55;;;1.90;;
8044;SDS011;4065;48.754;9.982;2023-07-29T11:36:44;3.53;;;2.08;;
8044;SDS011;4065;48.754;9.982;2023-07-29T11:40:07;2.55;;;1.70;;
8044;SDS011;4065;48.754;9.982;2023-07-29T11:43:34;2.53;;;1.80;;
8044;SDS011;4065;48.754;9.982;2023-07-29T11:46:56;3.78;;;1.95;;
8044;SDS011;4065;48.754;9.982;2023-07-29T11:50:18;2.50;;;1.60;;
8044;SDS011;4065;48.754;9.982;2023-07-29T11:53:41;2.10;;;1.90;;
8044;SDS011;4065;48.754;9.982;2023-07-29T11:57:03;4.47;;;1.83;;
8044;SDS011;4065;48.754;9.982;2023-07-29T12:00:26;1.75;;;1.65;;
8044;SDS011;4065;48.754;9.982;2023-07-29T12:03:48;2.63;;;2.20;;
8044;SDS011;4065;48.754;9.982;2023-07-29T12:07:12;2.35;;;1.95;;
8044;SDS011;4065;48.754;9.982;2023-07-29T12:10:36;3.10;;;1.80;;
8044;SDS011;4065;48.754;9.982;2023-07-29T12:13:59;2.75;;;2.03;;
8044;SDS011;4065;48.754;9.982;2023-07-29T12:17:21;2.13;;;1.92;;
8044;SDS011;4065;48.754;9.982;2023-07-29T12:20:44;2.20;;;1.95;;
8044;SDS011;4065;48.754;9.982;2023-07-29T12:24:06;2.90;;;2.13;;
8044;SDS011;4065;48.754;9.982;2023-07-29T12:27:29;2.53;;;2.10;;
8044;SDS011;4065;48.754;9.982;2023-07-29T12:30:52;3.38;;;2.30;;
8044;SDS011;4065;48.754;9.982;2023-07-29T12:34:18;2.47;;;2.28;;
8044;SDS011;4065;48.754;9.982;2023-07-29T12:37:40;2.63;;;2.13;;
8044;SDS011;4065;48.754;9.982;2023-07-29T12:41:03;3.42;;;2.00;;
8044;SDS011;4065;48.754;9.982;2023-07-29T12:44:29;2.58;;;2.10;;
8044;SDS011;4065;48.754;9.982;2023-07-29T12:47:51;3.42;;;2.00;;
8044;SDS011;4065;48.754;9.982;2023-07-29T12:51:13;1.92;;;1.75;;
8044;SDS011;4065;48.754;9.982;2023-07-29T12:54:35;2.25;;;2.05;;
8044;SDS011;4065;48.754;9.982;2023-07-29T12:57:57;2.03;;;1.83;;
8044;SDS011;4065;48.754;9.982;2023-07-29T13:01:21;2.70;;;2.20;;
8044;SDS011;4065;48.754;9.982;2023-07-29T13:04:42;2.42;;;2.08;;
8044;SDS011;4065;48.754;9.982;2023-07-29T13:08:04;3.53;;;2.20;;
8044;SDS011;4065;48.754;9.982;2023-07-29T13:11:26;2.40;;;2.10;;
8044;SDS011;4065;48.754;9.982;2023-07-29T13:14:48;3.80;;;2.15;;
8044;SDS011;4065;48.754;9.982;2023-07-29T13:18:11;3.22;;;2.45;;
8044;SDS011;4065;48.754;9.982;2023-07-29T13:21:35;2.85;;;2.47;;
8044;SDS011;4065;48.754;9.982;2023-07-29T13:24:57;2.95;;;2.55;;
8044;SDS011;4065;48.754;9.982;2023-07-29T13:28:19;3.17;;;2.25;;
8044;SDS011;4065;48.754;9.982;2023-07-29T13:31:40;2.67;;;2.47;;
8044;SDS011;4065;48.754;9.982;2023-07-29T13:35:04;3.90;;;2.22;;
8044;SDS011;4065;48.754;9.982;2023-07-29T13:38:27;2.95;;;2.33;;
8044;SDS011;4065;48.754;9.982;2023-07-29T13:41:49;3.03;;;2.72;;
8044;SDS011;4065;48.754;9.982;2023-07-29T13:45:11;3.53;;;2.47;;
8044;SDS011;4065;48.754;9.982;2023-07-29T13:48:33;2.92;;;2.63;;
8044;SDS011;4065;48.754;9.982;2023-07-29T13:51:57;3.65;;;2.50;;
8044;SDS011;4065;48.754;9.982;2023-07-29T13:55:19;3.00;;;2.55;;
8044;SDS011;4065;48.754;9.982;2023-07-29T13:58:41;2.70;;;2.35;;
8044;SDS011;4065;48.754;9.982;2023-07-29T14:02:03;2.72;;;2.40;;
8044;SDS011;4065;48.754;9.982;2023-07-29T14:05:26;4.15;;;3.00;;
8044;SDS011;4065;48.754;9.982;2023-07-29T14:08:49;3.97;;;2.30;;
8044;SDS011;4065;48.754;9.982;2023-07-29T14:12:11;5.50;;;2.72;;
8044;SDS011;4065;48.754;9.982;2023-07-29T14:15:35;3.25;;;2.33;;
8044;SDS011;4065;48.754;9.982;2023-07-29T14:18:57;4.20;;;2.58;;
8044;SDS011;4065;48.754;9.982;2023-07-29T14:22:19;2.92;;;2.28;;
8044;SDS011;4065;48.754;9.982;2023-07-29T14:25:42;2.55;;;2.35;;
8044;SDS011;4065;48.754;9.982;2023-07-29T14:29:04;2.70;;;2.50;;
8044;SDS011;4065;48.754;9.982;2023-07-29T14:32:26;3.17;;;2.58;;
8044;SDS011;4065;48.754;9.982;2023-07-29T14:35:47;2.97;;;2.40;;
8044;SDS011;4065;48.754;9.982;2023-07-29T14:39:09;3.47;;;2.60;;
8044;SDS011;4065;48.754;9.982;2023-07-29T14:42:33;2.80;;;2.50;;
8044;SDS011;4065;48.754;9.982;2023-07-29T14:45:55;3.33;;;2.50;;
8044;SDS011;4065;48.754;9.982;2023-07-29T14:49:16;2.42;;;2.20;;
8044;SDS011;4065;48.754;9.982;2023-07-29T14:52:38;3.00;;;2.70;;
8044;SDS011;4065;48.754;9.982;2023-07-29T14:56:00;3.67;;;2.75;;
8044;SDS011;4065;48.754;9.982;2023-07-29T14:59:23;3.22;;;2.90;;
8044;SDS011;4065;48.754;9.982;2023-07-29T15:02:45;3.72;;;2.70;;
8044;SDS011;4065;48.754;9.982;2023-07-29T15:06:09;3.17;;;2.67;;
8044;SDS011;4065;48.754;9.982;2023-07-29T15:09:31;3.85;;;3.03;;
8044;SDS011;4065;48.754;9.982;2023-07-29T15:12:53;4.32;;;3.05;;
8044;SDS011;4065;48.754;9.982;2023-07-29T15:16:16;4.32;;;3.60;;
8044;SDS011;4065;48.754;9.982;2023-07-29T15:19:38;4.63;;;3.42;;
8044;SDS011;4065;48.754;9.982;2023-07-29T15:23:00;6.20;;;3.70;;
8044;SDS011;4065;48.754;9.982;2023-07-29T15:26:22;4.22;;;3.70;;
8044;SDS011;4065;48.754;9.982;2023-07-29T15:29:43;4.22;;;3.38;;
8044;SDS011;4065;48.754;9.982;2023-07-29T15:33:07;4.28;;;3.47;;
8044;SDS011;4065;48.754;9.982;2023-07-29T15:36:29;4.00;;;3.30;;
8044;SDS011;4065;48.754;9.982;2023-07-29T15:39:53;4.45;;;3.75;;
8044;SDS011;4065;48.754;9.982;2023-07-29T15:43:15;4.55;;;3.85;;
8044;SDS011;4065;48.754;9.982;2023-07-29T15:46:37;8.07;;;4.93;;
8044;SDS011;4065;48.754;9.982;2023-07-29T15:50:00;5.95;;;4.50;;
8044;SDS011;4065;48.754;9.982;2023-07-29T15:53:22;4.93;;;4.20;;
8044;SDS011;4065;48.754;9.982;2023-07-29T15:56:44;5.75;;;4.45;;
8044;SDS011;4065;48.754;9.982;2023-07-29T16:00:07;5.55;;;4.30;;
8044;SDS011;4065;48.754;9.982;2023-07-29T16:03:29;5.55;;;3.58;;
8044;SDS011;4065;48.754;9.982;2023-07-29T16:06:53;6.43;;;2.70;;
8044;SDS011;4065;48.754;9.982;2023-07-29T16:10:15;4.35;;;3.42;;
8044;SDS011;4065;48.754;9.982;2023-07-29T16:13:37;4.13;;;3.40;;
8044;SDS011;4065;48.754;9.982;2023-07-29T16:16:58;3.50;;;2.70;;
8044;SDS011;4065;48.754;9.982;2023-07-29T16:20:20;3.10;;;2.80;;
8044;SDS011;4065;48.754;9.982;2023-07-29T16:23:43;4.97;;;3.33;;
8044;SDS011;4065;48.754;9.982;2023-07-29T16:27:05;3.65;;;2.97;;
8044;SDS011;4065;48.754;9.982;2023-07-29T16:30:27;4.00;;;2.90;;
8044;SDS011;4065;48.754;9.982;2023-07-29T16:33:49;2.80;;;2.55;;
8044;SDS011;4065;48.754;9.982;2023-07-29T16:37:11;4.05;;;2.90;;
8044;SDS011;4065;48.754;9.982;2023-07-29T16:40:35;3.28;;;2.83;;
8044;SDS011;4065;48.754;9.982;2023-07-29T16:43:56;2.92;;;2.60;;
8044;SDS011;4065;48.754;9.982;2023-07-29T16:47:18;3.08;;;2.78;;
8044;SDS011;4065;48.754;9.982;2023-07-29T16:50:40;2.70;;;2.40;;
8044;SDS011;4065;48.754;9.982;2023-07-29T16:54:02;3.30;;;2.88;;
8044;SDS011;4065;48.754;9.982;2023-07-29T16:57:25;2.88;;;2.40;;
8044;SDS011;4065;48.754;9.982;2023-07-29T17:00:47;3.35;;;2.55;;
8044;SDS011;4065;48.754;9.982;2023-07-29T17:04:09;3.60;;;2.83;;
8044;SDS011;4065;48.754;9.982;2023-07-29T17:07:31;2.95;;;2.65;;
8044;SDS011;4065;48.754;9.982;2023-07-29T17:10:53;3.95;;;2.80;;
8044;SDS011;4065;48.754;9.982;2023-07-29T17:14:16;3.38;;;2.80;;
8044;SDS011;4065;48.754;9.982;2023-07-29T17:17:39;3.05;;;2.75;;
8044;SDS011;4065;48.754;9.982;2023-07-29T17:21:01;3.33;;;2.88;;
8044;SDS011;4065;48.754;9.982;2023-07-29T17:24:22;3.05;;;2.70;;
8044;SDS011;4065;48.754;9.982;2023-07-29T17:27:45;2.92;;;2.47;;
8044;SDS011;4065;48.754;9.982;2023-07-29T17:31:08;2.97;;;2.65;;
8044;SDS011;4065;48.754;9.982;2023-07-29T17:34:30;4.35;;;3.05;;
8044;SDS011;4065;48.754;9.982;2023-07-29T17:37:52;3.42;;;3.03;;
8044;SDS011;4065;48.754;9.982;2023-07-29T17:41:14;3.05;;;2.70;;
8044;SDS011;4065;48.754;9.982;2023-07-29T17:44:36;4.45;;;2.40;;
8044;SDS011;4065;48.754;9.982;2023-07-29T17:47:59;4.30;;;2.80;;
8044;SDS011;4065;48.754;9.982;2023-07-29T17:51:21;3.03;;;2.60;;
8044;SDS011;4065;48.754;9.982;2023-07-29T17:54:44;3.22;;;2.92;;
8044;SDS011;4065;48.754;9.982;2023-07-29T17:58:06;4.43;;;3.33;;
8044;SDS011;4065;48.754;9.982;2023-07-29T18:01:28;4.40;;;2.85;;
8044;SDS011;4065;48.754;9.982;2023-07-29T18:04:51;2.90;;;2.60;;
8044;SDS011;4065;48.754;9.982;2023-07-29T18:08:13;4.78;;;2.80;;
8044;SDS011;4065;48.754;9.982;2023-07-29T18:11:35;5.55;;;3.50;;
8044;SDS011;4065;48.754;9.982;2023-07-29T18:15:01;5.85;;;3.05;;
8044;SDS011;4065;48.754;9.982;2023-07-29T18:18:25;4.28;;;3.20;;
8044;SDS011;4065;48.754;9.982;2023-07-29T18:21:52;3.67;;;3.05;;
8044;SDS011;4065;48.754;9.982;2023-07-29T18:25:13;4.30;;;3.17;;
8044;SDS011;4065;48.754;9.982;2023-07-29T18:28:36;5.53;;;3.08;;
8044;SDS011;4065;48.754;9.982;2023-07-29T18:31:58;5.50;;;3.35;;
8044;SDS011;4065;48.754;9.982;2023-07-29T18:35:21;6.28;;;3.92;;
8044;SDS011;4065;48.754;9.982;2023-07-29T18:38:44;4.85;;;3.35;;
8044;SDS011;4065;48.754;9.982;2023-07-29T18:42:07;7.18;;;3.42;;
8044;SDS011;4065;48.754;9.982;2023-07-29T18:45:29;3.97;;;3.30;;
8044;SDS011;4065;48.754;9.982;2023-07-29T18:48:54;4.03;;;3.42;;
8044;SDS011;4065;48.754;9.982;2023-07-29T18:52:16;3.85;;;3.42;;
8044;SDS011;4065;48.754;9.982;2023-07-29T18:55:41;3.90;;;3.50;;
8044;SDS011;4065;48.754;9.982;2023-07-29T18:59:05;4.22;;;3.38;;
8044;SDS011;4065;48.754;9.982;2023-07-29T19:02:27;5.15;;;4.07;;
8044;SDS011;4065;48.754;9.982;2023-07-29T19:05:54;4.80;;;3.58;;
8044;SDS011;4065;48.754;9.982;2023-07-29T19:09:17;5.28;;;3.70;;
8044;SDS011;4065;48.754;9.982;2023-07-29T19:12:41;5.03;;;3.78;;
8044;SDS011;4065;48.754;9.982;2023-07-29T19:16:05;4.72;;;4.20;;
8044;SDS011;4065;48.754;9.982;2023-07-29T19:19:30;6.00;;;3.65;;
8044;SDS011;4065;48.754;9.982;2023-07-29T19:27:09;4.13;;;3.58;;
8044;SDS011;4065;48.754;9.982;2023-07-29T19:30:33;4.38;;;3.47;;
8044;SDS011;4065;48.754;9.982;2023-07-29T19:33:55;4.05;;;3.47;;
8044;SDS011;4065;48.754;9.982;2023-07-29T19:37:17;3.60;;;3.13;;
8044;SDS011;4065;48.754;9.982;2023-07-29T19:40:39;5.85;;;3.30;;
8044;SDS011;4065;48.754;9.982;2023-07-29T19:44:02;4.47;;;3.50;;
8044;SDS011;4065;48.754;9.982;2023-07-29T19:47:25;5.85;;;3.72;;
8044;SDS011;4065;48.754;9.982;2023-07-29T19:50:48;4.93;;;3.80;;
8044;SDS011;4065;48.754;9.982;2023-07-29T19:54:10;5.07;;;3.65;;
8044;SDS011;4065;48.754;9.982;2023-07-29T19:57:33;6.30;;;3.78;;
8044;SDS011;4065;48.754;9.982;2023-07-29T20:00:55;5.57;;;3.60;;
8044;SDS011;4065;48.754;9.982;2023-07-29T20:04:18;6.38;;;4.20;;
8044;SDS011;4065;48.754;9.982;2023-07-29T20:07:41;4.30;;;3.13;;
8044;SDS011;4065;48.754;9.982;2023-07-29T20:11:03;6.05;;;3.67;;
8044;SDS011;4065;48.754;9.982;2023-07-29T20:14:25;6.18;;;3.90;;
8044;SDS011;4065;48.754;9.982;2023-07-29T20:17:48;5.45;;;3.95;;
8044;SDS011;4065;48.754;9.982;2023-07-29T20:21:11;4.10;;;3.40;;
8044;SDS011;4065;48.754;9.982;2023-07-29T20:24:34;4.55;;;3.70;;
8044;SDS011;4065;48.754;9.982;2023-07-29T20:27:56;4.63;;;3.88;;
8044;SDS011;4065;48.754;9.982;2023-07-29T20:31:19;6.63;;;4.13;;
8044;SDS011;4065;48.754;9.982;2023-07-29T20:34:41;4.72;;;3.60;;
8044;SDS011;4065;48.754;9.982;2023-07-29T20:38:05;5.18;;;3.95;;
8044;SDS011;4065;48.754;9.982;2023-07-29T20:41:27;4.38;;;3.70;;
8044;SDS011;4065;48.754;9.982;2023-07-29T20:44:50;3.90;;;3.50;;
8044;SDS011;4065;48.754;9.982;2023-07-29T20:48:13;4.05;;;3.75;;
8044;SDS011;4065;48.754;9.982;2023-07-29T20:51:36;5.00;;;3.67;;
8044;SDS011;4065;48.754;9.982;2023-07-29T20:54:59;6.60;;;3.70;;
8044;SDS011;4065;48.754;9.982;2023-07-29T20:58:23;4.90;;;4.40;;
8044;SDS011;4065;48.754;9.982;2023-07-29T21:01:45;5.57;;;4.28;;
8044;SDS011;4065;48.754;9.982;2023-07-29T21:05:10;6.18;;;3.92;;
8044;SDS011;4065;48.754;9.982;2023-07-29T21:08:34;4.45;;;4.05;;